sensor_id;sensor_type;location;lat;lon;timestamp;P1;durP1;ratioP1;P2;durP2;ratioP2
16524;SDS011;8375;33.594;-117.718;2024-02-04T00:00:43;6.13;;;1.30;;
16524;SDS011;8375;33.594;-117.718;2024-02-04T00:03:13;3.40;;;1.10;;
16524;SDS011;8375;33.594;-117.718;2024-02-04T00:05:42;3.70;;;1.20;;
16524;SDS011;8375;33.594;-117.718;2024-02-04T00:08:11;4.33;;;0.90;;
16524;SDS011;8375;33.594;-117.718;2024-02-04T00:10:42;8.00;;;1.47;;
16524;SDS011;8375;33.594;-117.718;2024-02-04T00:13:13;5.97;;;1.87;;
16524;SDS011;8375;33.594;-117.718;2024-02-04T00:15:42;4.57;;;1.30;;
16524;SDS011;8375;33.594;-117.718;2024-02-04T00:18:11;3.93;;;1.10;;
16524;SDS011;8375;33.594;-117.718;2024-02-04T00:20:41;4.33;;;1.57;;
16524;SDS011;8375;33.594;-117.718;2024-02-04T00:23:10;7.87;;;1.30;;
16524;SDS011;8375;33.594;-117.718;2024-02-04T00:25:38;6.20;;;1.33;;
16524;SDS011;8375;33.594;-117.718;2024-02-04T00:28:08;6.20;;;1.33;;
16524;SDS011;8375;33.594;-117.718;2024-02-04T00:30:37;5.17;;;1.37;;
16524;SDS011;8375;33.594;-117.718;2024-02-04T00:33:06;5.70;;;1.50;;
16524;SDS011;8375;33.594;-117.718;2024-02-04T00:35:36;6.20;;;1.50;;
16524;SDS011;8375;33.594;-117.718;2024-02-04T00:38:05;3.90;;;1.20;;
16524;SDS011;8375;33.594;-117.718;2024-02-04T00:40:34;6.03;;;1.13;;
16524;SDS011;8375;33.594;-117.718;2024-02-04T00:43:03;6.63;;;1.33;;
16524;SDS011;8375;33.594;-117.718;2024-02-04T00:45:31;4.30;;;1.23;;
16524;SDS011;8375;33.594;-117.718;2024-02-04T00:48:00;9.40;;;1.57;;
16524;SDS011;8375;33.594;-117.718;2024-02-04T00:50:28;4.07;;;1.10;;
16524;SDS011;8375;33.594;-117.718;2024-02-04T00:52:59;6.77;;;1.37;;
16524;SDS011;8375;33.594;-117.718;2024-02-04T00:55:27;4.63;;;1.27;;
16524;SDS011;8375;33.594;-117.718;2024-02-04T00:57:56;6.07;;;1.50;;
16524;SDS011;8375;33.594;-117.718;2024-02-04T01:00:27;8.53;;;1.50;;
16524;SDS011;8375;33.594;-117.718;2024-02-04T01:02:55;6.47;;;1.60;;
16524;SDS011;8375;33.594;-117.718;2024-02-04T01:05:24;7.77;;;1.80;;
16524;SDS011;8375;33.594;-117.718;2024-02-04T01:07:52;5.80;;;1.30;;
16524;SDS011;8375;33.594;-117.718;2024-02-04T01:10:23;4.07;;;1.27;;
16524;SDS011;8375;33.594;-117.718;2024-02-04T01:12:51;7.53;;;1.30;;
16524;SDS011;8375;33.594;-117.718;2024-02-04T01:15:20;5.83;;;1.77;;
16524;SDS011;8375;33.594;-117.718;2024-02-04T01:17:49;5.07;;;1.57;;
16524;SDS011;8375;33.594;-117.718;2024-02-04T01:20:18;5.63;;;1.77;;
16524;SDS011;8375;33.594;-117.718;2024-02-04T01:22:47;4.33;;;1.50;;
16524;SDS011;8375;33.594;-117.718;2024-02-04T01:25:15;7.07;;;1.30;;
16524;SDS011;8375;33.594;-117.718;2024-02-04T01:27:45;5.90;;;1.40;;
16524;SDS011;8375;33.594;-117.718;2024-02-04T01:30:14;5.37;;;1.90;;
16524;SDS011;8375;33.594;-117.718;2024-02-04T01:32:43;6.23;;;1.63;;
16524;SDS011;8375;33.594;-117.718;2024-02-04T01:35:12;6.37;;;1.90;;
16524;SDS011;8375;33.594;-117.718;2024-02-04T01:37:41;6.10;;;1.70;;
16524;SDS011;8375;33.594;-117.718;2024-02-04T01:40:14;6.20;;;1.10;;
16524;SDS011;8375;33.594;-117.718;2024-02-04T01:42:42;5.10;;;1.37;;
16524;SDS011;8375;33.594;-117.718;2024-02-04T01:45:13;8.27;;;1.50;;
16524;SDS011;8375;33.594;-117.718;2024-02-04T01:47:41;8.13;;;1.93;;
16524;SDS011;8375;33.594;-117.718;2024-02-04T01:50:11;5.93;;;1.30;;
16524;SDS011;8375;33.594;-117.718;2024-02-04T01:52:39;5.83;;;1.60;;
16524;SDS011;8375;33.594;-117.718;2024-02-04T01:55:14;6.73;;;2.30;;
16524;SDS011;8375;33.594;-117.718;2024-02-04T01:57:46;7.27;;;1.30;;
16524;SDS011;8375;33.594;-117.718;2024-02-04T02:00:16;6.00;;;1.57;;
16524;SDS011;8375;33.594;-117.718;2024-02-04T02:02:45;8.13;;;1.80;;
16524;SDS011;8375;33.594;-117.718;2024-02-04T02:05:16;6.80;;;1.80;;
16524;SDS011;8375;33.594;-117.718;2024-02-04T02:07:44;11.10;;;1.77;;
16524;SDS011;8375;33.594;-117.718;2024-02-04T02:10:16;5.80;;;1.40;;
16524;SDS011;8375;33.594;-117.718;2024-02-04T02:12:48;8.43;;;1.60;;
16524;SDS011;8375;33.594;-117.718;2024-02-04T02:15:22;8.37;;;1.60;;
16524;SDS011;8375;33.594;-117.718;2024-02-04T02:17:55;5.20;;;1.73;;
16524;SDS011;8375;33.594;-117.718;2024-02-04T02:20:28;5.33;;;1.87;;
16524;SDS011;8375;33.594;-117.718;2024-02-04T02:23:07;8.37;;;1.73;;
16524;SDS011;8375;33.594;-117.718;2024-02-04T02:25:40;6.47;;;1.90;;
16524;SDS011;8375;33.594;-117.718;2024-02-04T02:28:09;10.10;;;1.50;;
16524;SDS011;8375;33.594;-117.718;2024-02-04T02:30:38;7.63;;;2.37;;
16524;SDS011;8375;33.594;-117.718;2024-02-04T02:33:07;8.77;;;1.80;;
16524;SDS011;8375;33.594;-117.718;2024-02-04T02:35:35;5.17;;;1.83;;
16524;SDS011;8375;33.594;-117.718;2024-02-04T02:38:06;5.30;;;1.97;;
16524;SDS011;8375;33.594;-117.718;2024-02-04T02:40:44;14.03;;;4.27;;
16524;SDS011;8375;33.594;-117.718;2024-02-04T02:43:15;10.43;;;4.93;;
16524;SDS011;8375;33.594;-117.718;2024-02-04T02:45:44;13.00;;;5.37;;
16524;SDS011;8375;33.594;-117.718;2024-02-04T02:48:13;11.93;;;4.97;;
16524;SDS011;8375;33.594;-117.718;2024-02-04T02:50:47;10.33;;;3.30;;
16524;SDS011;8375;33.594;-117.718;2024-02-04T02:53:16;9.13;;;2.90;;
16524;SDS011;8375;33.594;-117.718;2024-02-04T02:55:47;7.97;;;2.37;;
16524;SDS011;8375;33.594;-117.718;2024-02-04T02:58:16;6.70;;;2.10;;
16524;SDS011;8375;33.594;-117.718;2024-02-04T03:00:45;7.40;;;2.37;;
16524;SDS011;8375;33.594;-117.718;2024-02-04T03:03:13;8.13;;;2.13;;
16524;SDS011;8375;33.594;-117.718;2024-02-04T03:05:42;6.43;;;1.50;;
16524;SDS011;8375;33.594;-117.718;2024-02-04T03:08:10;7.53;;;1.90;;
16524;SDS011;8375;33.594;-117.718;2024-02-04T03:10:39;8.07;;;1.97;;
16524;SDS011;8375;33.594;-117.718;2024-02-04T03:13:09;7.43;;;2.00;;
16524;SDS011;8375;33.594;-117.718;2024-02-04T03:15:38;4.93;;;1.60;;
16524;SDS011;8375;33.594;-117.718;2024-02-04T03:18:08;10.87;;;2.00;;
16524;SDS011;8375;33.594;-117.718;2024-02-04T03:20:37;7.20;;;1.90;;
16524;SDS011;8375;33.594;-117.718;2024-02-04T03:23:05;7.87;;;2.43;;
16524;SDS011;8375;33.594;-117.718;2024-02-04T03:25:34;4.83;;;1.90;;
16524;SDS011;8375;33.594;-117.718;2024-02-04T03:28:03;11.30;;;2.93;;
16524;SDS011;8375;33.594;-117.718;2024-02-04T03:30:33;9.23;;;2.90;;
16524;SDS011;8375;33.594;-117.718;2024-02-04T03:33:02;11.03;;;3.10;;
16524;SDS011;8375;33.594;-117.718;2024-02-04T03:35:31;11.63;;;4.13;;
16524;SDS011;8375;33.594;-117.718;2024-02-04T03:38:03;12.43;;;3.67;;
16524;SDS011;8375;33.594;-117.718;2024-02-04T03:40:31;5.47;;;3.27;;
16524;SDS011;8375;33.594;-117.718;2024-02-04T03:43:00;8.97;;;3.50;;
16524;SDS011;8375;33.594;-117.718;2024-02-04T03:45:29;16.73;;;5.90;;
16524;SDS011;8375;33.594;-117.718;2024-02-04T03:47:59;13.97;;;4.57;;
16524;SDS011;8375;33.594;-117.718;2024-02-04T03:50:28;14.97;;;4.37;;
16524;SDS011;8375;33.594;-117.718;2024-02-04T03:52:56;13.77;;;3.73;;
16524;SDS011;8375;33.594;-117.718;2024-02-04T03:55:25;9.43;;;3.00;;
16524;SDS011;8375;33.594;-117.718;2024-02-04T03:57:54;7.10;;;2.93;;
16524;SDS011;8375;33.594;-117.718;2024-02-04T04:00:23;5.50;;;2.60;;
16524;SDS011;8375;33.594;-117.718;2024-02-04T04:02:52;9.00;;;4.13;;
16524;SDS011;8375;33.594;-117.718;2024-02-04T04:05:22;7.03;;;3.00;;
16524;SDS011;8375;33.594;-117.718;2024-02-04T04:07:52;10.97;;;3.27;;
16524;SDS011;8375;33.594;-117.718;2024-02-04T04:10:20;8.07;;;3.00;;
16524;SDS011;8375;33.594;-117.718;2024-02-04T04:12:49;7.03;;;3.07;;
16524;SDS011;8375;33.594;-117.718;2024-02-04T04:15:17;8.30;;;3.07;;
16524;SDS011;8375;33.594;-117.718;2024-02-04T04:17:46;7.70;;;3.03;;
16524;SDS011;8375;33.594;-117.718;2024-02-04T04:20:14;7.57;;;3.43;;
16524;SDS011;8375;33.594;-117.718;2024-02-04T04:22:45;8.40;;;3.77;;
16524;SDS011;8375;33.594;-117.718;2024-02-04T04:25:14;8.40;;;3.43;;
16524;SDS011;8375;33.594;-117.718;2024-02-04T04:27:43;8.90;;;3.57;;
16524;SDS011;8375;33.594;-117.718;2024-02-04T04:30:12;9.00;;;3.83;;
16524;SDS011;8375;33.594;-117.718;2024-02-04T04:32:40;10.70;;;3.17;;
16524;SDS011;8375;33.594;-117.718;2024-02-04T04:35:11;7.40;;;2.90;;
16524;SDS011;8375;33.594;-117.718;2024-02-04T04:37:40;14.33;;;3.23;;
16524;SDS011;8375;33.594;-117.718;2024-02-04T04:40:11;7.00;;;2.50;;
16524;SDS011;8375;33.594;-117.718;2024-02-04T04:42:40;10.53;;;2.87;;
16524;SDS011;8375;33.594;-117.718;2024-02-04T04:45:09;7.10;;;2.90;;
16524;SDS011;8375;33.594;-117.718;2024-02-04T04:47:39;7.93;;;3.13;;
16524;SDS011;8375;33.594;-117.718;2024-02-04T04:50:08;9.90;;;3.10;;
16524;SDS011;8375;33.594;-117.718;2024-02-04T04:52:37;9.93;;;3.43;;
16524;SDS011;8375;33.594;-117.718;2024-02-04T04:55:06;8.87;;;2.73;;
16524;SDS011;8375;33.594;-117.718;2024-02-04T04:57:36;6.10;;;2.30;;
16524;SDS011;8375;33.594;-117.718;2024-02-04T05:00:05;9.70;;;3.03;;
16524;SDS011;8375;33.594;-117.718;2024-02-04T05:02:36;9.73;;;2.90;;
16524;SDS011;8375;33.594;-117.718;2024-02-04T05:05:05;12.77;;;3.37;;
16524;SDS011;8375;33.594;-117.718;2024-02-04T05:07:34;9.07;;;3.43;;
16524;SDS011;8375;33.594;-117.718;2024-02-04T05:10:03;8.63;;;3.27;;
16524;SDS011;8375;33.594;-117.718;2024-02-04T05:12:32;9.50;;;3.07;;
16524;SDS011;8375;33.594;-117.718;2024-02-04T05:15:03;11.77;;;3.63;;
16524;SDS011;8375;33.594;-117.718;2024-02-04T05:17:33;5.97;;;2.90;;
16524;SDS011;8375;33.594;-117.718;2024-02-04T05:20:01;9.90;;;3.20;;
16524;SDS011;8375;33.594;-117.718;2024-02-04T05:22:30;9.77;;;3.87;;
16524;SDS011;8375;33.594;-117.718;2024-02-04T05:24:59;10.27;;;3.00;;
16524;SDS011;8375;33.594;-117.718;2024-02-04T05:27:28;11.67;;;3.43;;
16524;SDS011;8375;33.594;-117.718;2024-02-04T05:29:57;8.07;;;2.93;;
16524;SDS011;8375;33.594;-117.718;2024-02-04T05:32:27;9.53;;;3.47;;
16524;SDS011;8375;33.594;-117.718;2024-02-04T05:34:56;8.60;;;2.70;;
16524;SDS011;8375;33.594;-117.718;2024-02-04T05:37:24;10.60;;;3.30;;
16524;SDS011;8375;33.594;-117.718;2024-02-04T05:39:53;6.93;;;2.90;;
16524;SDS011;8375;33.594;-117.718;2024-02-04T05:42:22;8.17;;;3.23;;
16524;SDS011;8375;33.594;-117.718;2024-02-04T05:44:50;8.13;;;3.03;;
16524;SDS011;8375;33.594;-117.718;2024-02-04T05:47:19;7.60;;;2.80;;
16524;SDS011;8375;33.594;-117.718;2024-02-04T05:49:49;7.53;;;3.10;;
16524;SDS011;8375;33.594;-117.718;2024-02-04T05:52:18;10.50;;;3.37;;
16524;SDS011;8375;33.594;-117.718;2024-02-04T05:54:47;7.67;;;3.03;;
16524;SDS011;8375;33.594;-117.718;2024-02-04T05:57:15;6.77;;;2.67;;
16524;SDS011;8375;33.594;-117.718;2024-02-04T05:59:46;6.23;;;2.80;;
16524;SDS011;8375;33.594;-117.718;2024-02-04T06:02:14;7.17;;;2.70;;
16524;SDS011;8375;33.594;-117.718;2024-02-04T06:04:43;8.17;;;3.00;;
16524;SDS011;8375;33.594;-117.718;2024-02-04T06:07:15;7.70;;;2.70;;
16524;SDS011;8375;33.594;-117.718;2024-02-04T06:09:44;7.43;;;2.93;;
16524;SDS011;8375;33.594;-117.718;2024-02-04T06:12:12;6.67;;;3.00;;
16524;SDS011;8375;33.594;-117.718;2024-02-04T06:14:41;7.87;;;3.43;;
16524;SDS011;8375;33.594;-117.718;2024-02-04T06:17:10;8.03;;;2.90;;
16524;SDS011;8375;33.594;-117.718;2024-02-04T06:19:38;6.37;;;2.60;;
16524;SDS011;8375;33.594;-117.718;2024-02-04T06:22:07;7.27;;;3.50;;
16524;SDS011;8375;33.594;-117.718;2024-02-04T06:24:37;7.23;;;3.13;;
16524;SDS011;8375;33.594;-117.718;2024-02-04T06:27:06;6.43;;;2.97;;
16524;SDS011;8375;33.594;-117.718;2024-02-04T06:29:35;7.10;;;3.13;;
16524;SDS011;8375;33.594;-117.718;2024-02-04T06:32:06;9.90;;;3.80;;
16524;SDS011;8375;33.594;-117.718;2024-02-04T06:34:35;11.23;;;4.73;;
16524;SDS011;8375;33.594;-117.718;2024-02-04T07:05:50;9.97;;;4.70;;
16524;SDS011;8375;33.594;-117.718;2024-02-04T07:08:18;9.97;;;4.93;;
16524;SDS011;8375;33.594;-117.718;2024-02-04T07:10:47;13.47;;;5.53;;
16524;SDS011;8375;33.594;-117.718;2024-02-04T07:13:16;11.63;;;4.90;;
16524;SDS011;8375;33.594;-117.718;2024-02-04T07:15:45;12.07;;;5.03;;
16524;SDS011;8375;33.594;-117.718;2024-02-04T07:18:14;12.83;;;5.57;;
16524;SDS011;8375;33.594;-117.718;2024-02-04T07:20:47;9.70;;;5.20;;
16524;SDS011;8375;33.594;-117.718;2024-02-04T07:23:17;9.83;;;4.90;;
16524;SDS011;8375;33.594;-117.718;2024-02-04T07:25:47;12.03;;;5.00;;
16524;SDS011;8375;33.594;-117.718;2024-02-04T07:28:15;11.53;;;5.10;;
16524;SDS011;8375;33.594;-117.718;2024-02-04T07:30:44;10.73;;;4.50;;
16524;SDS011;8375;33.594;-117.718;2024-02-04T07:33:13;9.33;;;4.40;;
16524;SDS011;8375;33.594;-117.718;2024-02-04T07:35:41;15.37;;;4.53;;
16524;SDS011;8375;33.594;-117.718;2024-02-04T07:38:10;8.17;;;3.70;;
16524;SDS011;8375;33.594;-117.718;2024-02-04T07:40:41;9.77;;;3.97;;
16524;SDS011;8375;33.594;-117.718;2024-02-04T07:43:10;8.73;;;3.10;;
16524;SDS011;8375;33.594;-117.718;2024-02-04T07:45:38;6.47;;;2.60;;
16524;SDS011;8375;33.594;-117.718;2024-02-04T07:48:07;5.70;;;2.23;;
16524;SDS011;8375;33.594;-117.718;2024-02-04T07:50:36;8.07;;;2.50;;
16524;SDS011;8375;33.594;-117.718;2024-02-04T07:53:05;7.13;;;2.50;;
16524;SDS011;8375;33.594;-117.718;2024-02-04T07:55:34;12.27;;;2.17;;
16524;SDS011;8375;33.594;-117.718;2024-02-04T07:58:04;8.13;;;2.30;;
16524;SDS011;8375;33.594;-117.718;2024-02-04T08:00:33;9.13;;;2.80;;
16524;SDS011;8375;33.594;-117.718;2024-02-04T08:03:02;7.27;;;2.30;;
16524;SDS011;8375;33.594;-117.718;2024-02-04T08:05:30;9.60;;;2.67;;
16524;SDS011;8375;33.594;-117.718;2024-02-04T08:08:00;7.57;;;2.23;;
16524;SDS011;8375;33.594;-117.718;2024-02-04T08:10:29;6.63;;;2.10;;
16524;SDS011;8375;33.594;-117.718;2024-02-04T08:12:58;7.10;;;2.43;;
16524;SDS011;8375;33.594;-117.718;2024-02-04T08:15:28;6.63;;;2.43;;
16524;SDS011;8375;33.594;-117.718;2024-02-04T08:17:57;5.60;;;2.03;;
16524;SDS011;8375;33.594;-117.718;2024-02-04T08:20:25;9.60;;;2.00;;
16524;SDS011;8375;33.594;-117.718;2024-02-04T08:22:54;7.17;;;1.93;;
16524;SDS011;8375;33.594;-117.718;2024-02-04T08:25:23;7.70;;;2.20;;
16524;SDS011;8375;33.594;-117.718;2024-02-04T08:27:51;9.37;;;1.90;;
16524;SDS011;8375;33.594;-117.718;2024-02-04T08:30:20;5.83;;;1.77;;
16524;SDS011;8375;33.594;-117.718;2024-02-04T08:32:50;5.67;;;1.70;;
16524;SDS011;8375;33.594;-117.718;2024-02-04T08:35:19;6.07;;;2.13;;
16524;SDS011;8375;33.594;-117.718;2024-02-04T08:37:47;5.93;;;1.80;;
16524;SDS011;8375;33.594;-117.718;2024-02-04T08:40:16;6.70;;;1.90;;
16524;SDS011;8375;33.594;-117.718;2024-02-04T08:42:45;9.90;;;2.30;;
16524;SDS011;8375;33.594;-117.718;2024-02-04T08:45:13;7.50;;;2.27;;
16524;SDS011;8375;33.594;-117.718;2024-02-04T08:47:42;5.87;;;2.10;;
16524;SDS011;8375;33.594;-117.718;2024-02-04T08:50:12;7.50;;;2.30;;
16524;SDS011;8375;33.594;-117.718;2024-02-04T08:52:41;6.87;;;1.80;;
16524;SDS011;8375;33.594;-117.718;2024-02-04T08:55:10;7.07;;;2.00;;
16524;SDS011;8375;33.594;-117.718;2024-02-04T08:57:39;3.13;;;1.90;;
16524;SDS011;8375;33.594;-117.718;2024-02-04T09:00:08;8.63;;;1.70;;
16524;SDS011;8375;33.594;-117.718;2024-02-04T09:02:37;7.53;;;1.93;;
16524;SDS011;8375;33.594;-117.718;2024-02-04T09:05:06;7.00;;;2.07;;
16524;SDS011;8375;33.594;-117.718;2024-02-04T09:07:37;6.97;;;1.93;;
16524;SDS011;8375;33.594;-117.718;2024-02-04T09:10:06;7.97;;;2.00;;
16524;SDS011;8375;33.594;-117.718;2024-02-04T09:12:35;10.10;;;1.90;;
16524;SDS011;8375;33.594;-117.718;2024-02-04T09:15:04;10.00;;;1.73;;
16524;SDS011;8375;33.594;-117.718;2024-02-04T09:17:34;4.50;;;1.47;;
16524;SDS011;8375;33.594;-117.718;2024-02-04T09:20:03;6.93;;;1.70;;
16524;SDS011;8375;33.594;-117.718;2024-02-04T09:22:33;8.90;;;1.80;;
16524;SDS011;8375;33.594;-117.718;2024-02-04T09:25:03;7.77;;;2.00;;
16524;SDS011;8375;33.594;-117.718;2024-02-04T09:27:33;6.40;;;1.60;;
16524;SDS011;8375;33.594;-117.718;2024-02-04T09:30:02;6.97;;;2.00;;
16524;SDS011;8375;33.594;-117.718;2024-02-04T09:32:31;5.63;;;1.50;;
16524;SDS011;8375;33.594;-117.718;2024-02-04T09:35:00;5.77;;;1.37;;
16524;SDS011;8375;33.594;-117.718;2024-02-04T09:37:29;10.03;;;1.63;;
16524;SDS011;8375;33.594;-117.718;2024-02-04T09:39:58;6.93;;;1.60;;
16524;SDS011;8375;33.594;-117.718;2024-02-04T09:42:28;5.30;;;2.10;;
16524;SDS011;8375;33.594;-117.718;2024-02-04T09:44:57;8.20;;;1.90;;
16524;SDS011;8375;33.594;-117.718;2024-02-04T09:47:26;5.83;;;1.60;;
16524;SDS011;8375;33.594;-117.718;2024-02-04T09:49:55;5.30;;;1.63;;
16524;SDS011;8375;33.594;-117.718;2024-02-04T09:52:25;5.37;;;1.50;;
16524;SDS011;8375;33.594;-117.718;2024-02-04T09:54:59;8.50;;;2.03;;
16524;SDS011;8375;33.594;-117.718;2024-02-04T09:57:30;6.30;;;1.30;;
16524;SDS011;8375;33.594;-117.718;2024-02-04T10:00:02;5.40;;;2.00;;
16524;SDS011;8375;33.594;-117.718;2024-02-04T10:02:32;8.77;;;1.70;;
16524;SDS011;8375;33.594;-117.718;2024-02-04T10:05:00;8.30;;;1.77;;
16524;SDS011;8375;33.594;-117.718;2024-02-04T10:07:30;8.50;;;1.57;;
16524;SDS011;8375;33.594;-117.718;2024-02-04T10:09:58;9.07;;;1.73;;
16524;SDS011;8375;33.594;-117.718;2024-02-04T10:12:27;4.40;;;1.57;;
16524;SDS011;8375;33.594;-117.718;2024-02-04T10:14:58;6.43;;;1.47;;
16524;SDS011;8375;33.594;-117.718;2024-02-04T10:17:27;8.33;;;1.77;;
16524;SDS011;8375;33.594;-117.718;2024-02-04T10:19:57;5.13;;;1.83;;
16524;SDS011;8375;33.594;-117.718;2024-02-04T10:22:28;6.43;;;1.93;;
16524;SDS011;8375;33.594;-117.718;2024-02-04T10:25:05;6.90;;;1.73;;
16524;SDS011;8375;33.594;-117.718;2024-02-04T10:27:34;10.93;;;2.20;;
16524;SDS011;8375;33.594;-117.718;2024-02-04T10:30:05;7.87;;;1.80;;
16524;SDS011;8375;33.594;-117.718;2024-02-04T10:32:34;9.30;;;1.70;;
16524;SDS011;8375;33.594;-117.718;2024-02-04T10:35:03;10.00;;;1.50;;
16524;SDS011;8375;33.594;-117.718;2024-02-04T10:37:32;6.83;;;1.70;;
16524;SDS011;8375;33.594;-117.718;2024-02-04T10:40:01;6.07;;;1.57;;
16524;SDS011;8375;33.594;-117.718;2024-02-04T10:42:30;4.17;;;1.33;;
16524;SDS011;8375;33.594;-117.718;2024-02-04T10:44:59;4.37;;;1.43;;
16524;SDS011;8375;33.594;-117.718;2024-02-04T10:47:32;4.07;;;1.47;;
16524;SDS011;8375;33.594;-117.718;2024-02-04T10:50:05;7.03;;;1.60;;
16524;SDS011;8375;33.594;-117.718;2024-02-04T10:52:35;5.10;;;1.70;;
16524;SDS011;8375;33.594;-117.718;2024-02-04T10:55:07;6.63;;;1.50;;
16524;SDS011;8375;33.594;-117.718;2024-02-04T10:57:38;4.23;;;1.83;;
16524;SDS011;8375;33.594;-117.718;2024-02-04T11:00:07;5.70;;;1.70;;
16524;SDS011;8375;33.594;-117.718;2024-02-04T11:02:39;7.33;;;1.83;;
16524;SDS011;8375;33.594;-117.718;2024-02-04T11:05:11;8.17;;;1.87;;
16524;SDS011;8375;33.594;-117.718;2024-02-04T11:07:42;8.03;;;2.07;;
16524;SDS011;8375;33.594;-117.718;2024-02-04T11:10:11;4.17;;;1.30;;
16524;SDS011;8375;33.594;-117.718;2024-02-04T11:12:43;6.70;;;2.27;;
16524;SDS011;8375;33.594;-117.718;2024-02-04T11:15:13;5.63;;;1.50;;
16524;SDS011;8375;33.594;-117.718;2024-02-04T11:17:57;6.27;;;1.57;;
16524;SDS011;8375;33.594;-117.718;2024-02-04T11:20:57;6.30;;;1.70;;
16524;SDS011;8375;33.594;-117.718;2024-02-04T11:23:44;6.50;;;1.23;;
16524;SDS011;8375;33.594;-117.718;2024-02-04T11:26:21;4.20;;;1.53;;
16524;SDS011;8375;33.594;-117.718;2024-02-04T11:28:51;6.70;;;2.07;;
16524;SDS011;8375;33.594;-117.718;2024-02-04T11:31:19;6.37;;;1.37;;
16524;SDS011;8375;33.594;-117.718;2024-02-04T11:33:52;3.93;;;1.57;;
16524;SDS011;8375;33.594;-117.718;2024-02-04T11:36:24;5.13;;;1.30;;
16524;SDS011;8375;33.594;-117.718;2024-02-04T11:38:53;5.00;;;1.33;;
16524;SDS011;8375;33.594;-117.718;2024-02-04T11:41:22;4.67;;;1.40;;
16524;SDS011;8375;33.594;-117.718;2024-02-04T11:43:52;5.23;;;1.60;;
16524;SDS011;8375;33.594;-117.718;2024-02-04T11:46:27;3.67;;;1.13;;
16524;SDS011;8375;33.594;-117.718;2024-02-04T11:49:00;5.90;;;1.60;;
16524;SDS011;8375;33.594;-117.718;2024-02-04T11:54:04;3.57;;;1.30;;
16524;SDS011;8375;33.594;-117.718;2024-02-04T11:56:32;5.10;;;1.57;;
16524;SDS011;8375;33.594;-117.718;2024-02-04T11:59:03;6.87;;;1.37;;
16524;SDS011;8375;33.594;-117.718;2024-02-04T12:01:32;6.23;;;1.50;;
16524;SDS011;8375;33.594;-117.718;2024-02-04T12:04:10;9.03;;;2.00;;
16524;SDS011;8375;33.594;-117.718;2024-02-04T12:06:40;4.53;;;1.50;;
16524;SDS011;8375;33.594;-117.718;2024-02-04T12:09:09;5.83;;;1.33;;
16524;SDS011;8375;33.594;-117.718;2024-02-04T12:11:39;6.53;;;1.60;;
16524;SDS011;8375;33.594;-117.718;2024-02-04T12:14:08;6.90;;;1.80;;
16524;SDS011;8375;33.594;-117.718;2024-02-04T12:16:37;5.80;;;1.40;;
16524;SDS011;8375;33.594;-117.718;2024-02-04T12:19:06;7.10;;;1.50;;
16524;SDS011;8375;33.594;-117.718;2024-02-04T12:21:36;5.53;;;1.40;;
16524;SDS011;8375;33.594;-117.718;2024-02-04T12:24:05;4.73;;;1.37;;
16524;SDS011;8375;33.594;-117.718;2024-02-04T12:26:34;4.33;;;1.60;;
16524;SDS011;8375;33.594;-117.718;2024-02-04T12:29:03;5.33;;;1.30;;
16524;SDS011;8375;33.594;-117.718;2024-02-04T12:31:32;6.47;;;1.77;;
16524;SDS011;8375;33.594;-117.718;2024-02-04T12:34:01;5.60;;;1.73;;
16524;SDS011;8375;33.594;-117.718;2024-02-04T12:36:30;4.00;;;1.80;;
16524;SDS011;8375;33.594;-117.718;2024-02-04T12:39:01;5.97;;;1.60;;
16524;SDS011;8375;33.594;-117.718;2024-02-04T12:41:33;6.50;;;1.80;;
16524;SDS011;8375;33.594;-117.718;2024-02-04T12:44:01;3.43;;;1.60;;
16524;SDS011;8375;33.594;-117.718;2024-02-04T12:46:30;4.73;;;1.30;;
16524;SDS011;8375;33.594;-117.718;2024-02-04T12:48:59;3.20;;;1.40;;
16524;SDS011;8375;33.594;-117.718;2024-02-04T12:51:28;6.43;;;1.50;;
16524;SDS011;8375;33.594;-117.718;2024-02-04T12:54:08;5.10;;;1.60;;
16524;SDS011;8375;33.594;-117.718;2024-02-04T12:56:42;6.47;;;1.43;;
16524;SDS011;8375;33.594;-117.718;2024-02-04T12:59:12;6.10;;;1.73;;
16524;SDS011;8375;33.594;-117.718;2024-02-04T13:01:52;6.27;;;1.87;;
16524;SDS011;8375;33.594;-117.718;2024-02-04T13:04:26;3.33;;;1.83;;
16524;SDS011;8375;33.594;-117.718;2024-02-04T13:07:00;4.07;;;1.50;;
16524;SDS011;8375;33.594;-117.718;2024-02-04T13:09:31;4.77;;;1.70;;
16524;SDS011;8375;33.594;-117.718;2024-02-04T13:12:02;3.87;;;1.53;;
16524;SDS011;8375;33.594;-117.718;2024-02-04T13:14:32;5.50;;;1.70;;
16524;SDS011;8375;33.594;-117.718;2024-02-04T13:17:01;8.67;;;1.93;;
16524;SDS011;8375;33.594;-117.718;2024-02-04T13:19:33;4.90;;;1.40;;
16524;SDS011;8375;33.594;-117.718;2024-02-04T13:22:02;3.30;;;1.37;;
16524;SDS011;8375;33.594;-117.718;2024-02-04T13:24:33;4.53;;;1.60;;
16524;SDS011;8375;33.594;-117.718;2024-02-04T13:27:02;3.10;;;1.40;;
16524;SDS011;8375;33.594;-117.718;2024-02-04T13:29:32;4.40;;;1.43;;
16524;SDS011;8375;33.594;-117.718;2024-02-04T13:32:00;4.53;;;1.60;;
16524;SDS011;8375;33.594;-117.718;2024-02-04T13:34:29;5.57;;;1.50;;
16524;SDS011;8375;33.594;-117.718;2024-02-04T13:36:57;5.53;;;1.73;;
16524;SDS011;8375;33.594;-117.718;2024-02-04T13:39:26;4.80;;;1.70;;
16524;SDS011;8375;33.594;-117.718;2024-02-04T13:41:56;3.97;;;1.50;;
16524;SDS011;8375;33.594;-117.718;2024-02-04T13:44:25;5.10;;;1.90;;
16524;SDS011;8375;33.594;-117.718;2024-02-04T13:46:53;4.83;;;1.70;;
16524;SDS011;8375;33.594;-117.718;2024-02-04T13:49:22;7.47;;;1.93;;
16524;SDS011;8375;33.594;-117.718;2024-02-04T13:51:50;4.43;;;1.50;;
16524;SDS011;8375;33.594;-117.718;2024-02-04T13:54:19;6.83;;;1.90;;
16524;SDS011;8375;33.594;-117.718;2024-02-04T13:56:48;5.27;;;1.40;;
16524;SDS011;8375;33.594;-117.718;2024-02-04T13:59:18;4.13;;;1.63;;
16524;SDS011;8375;33.594;-117.718;2024-02-04T14:01:46;3.93;;;1.30;;
16524;SDS011;8375;33.594;-117.718;2024-02-04T14:04:16;5.23;;;2.10;;
16524;SDS011;8375;33.594;-117.718;2024-02-04T14:06:44;4.10;;;1.27;;
16524;SDS011;8375;33.594;-117.718;2024-02-04T14:09:13;3.53;;;1.47;;
16524;SDS011;8375;33.594;-117.718;2024-02-04T14:11:42;5.17;;;1.30;;
16524;SDS011;8375;33.594;-117.718;2024-02-04T14:14:10;4.00;;;1.23;;
16524;SDS011;8375;33.594;-117.718;2024-02-04T14:16:40;4.17;;;1.50;;
16524;SDS011;8375;33.594;-117.718;2024-02-04T14:19:09;7.50;;;1.77;;
16524;SDS011;8375;33.594;-117.718;2024-02-04T14:21:39;4.23;;;1.40;;
16524;SDS011;8375;33.594;-117.718;2024-02-04T14:24:08;3.47;;;1.30;;
16524;SDS011;8375;33.594;-117.718;2024-02-04T14:26:37;4.10;;;1.10;;
16524;SDS011;8375;33.594;-117.718;2024-02-04T14:29:06;2.87;;;1.30;;
16524;SDS011;8375;33.594;-117.718;2024-02-04T14:31:35;3.17;;;1.30;;
16524;SDS011;8375;33.594;-117.718;2024-02-04T14:34:05;4.20;;;1.30;;
16524;SDS011;8375;33.594;-117.718;2024-02-04T14:36:34;3.13;;;1.20;;
16524;SDS011;8375;33.594;-117.718;2024-02-04T14:39:03;4.00;;;1.30;;
16524;SDS011;8375;33.594;-117.718;2024-02-04T14:41:34;4.67;;;1.60;;
16524;SDS011;8375;33.594;-117.718;2024-02-04T14:44:03;3.37;;;1.00;;
16524;SDS011;8375;33.594;-117.718;2024-02-04T14:46:32;3.47;;;1.43;;
16524;SDS011;8375;33.594;-117.718;2024-02-04T14:49:05;2.37;;;1.00;;
16524;SDS011;8375;33.594;-117.718;2024-02-04T14:51:37;6.63;;;1.30;;
16524;SDS011;8375;33.594;-117.718;2024-02-04T14:54:06;4.53;;;1.43;;
16524;SDS011;8375;33.594;-117.718;2024-02-04T14:56:37;3.20;;;1.10;;
16524;SDS011;8375;33.594;-117.718;2024-02-04T14:59:05;1.87;;;1.07;;
16524;SDS011;8375;33.594;-117.718;2024-02-04T15:01:36;2.93;;;1.10;;
16524;SDS011;8375;33.594;-117.718;2024-02-04T15:04:06;4.83;;;1.23;;
16524;SDS011;8375;33.594;-117.718;2024-02-04T15:06:35;4.30;;;1.00;;